Bartlesville, OK

10:21 AM CDT on August 29, 2016 (GMT -0500)
Bartlesville - Osage County | | Change Station

Elev 873 ft 36.76 °N, 96.04 °W | Updated 1 minute ago

Overcast
Overcast
72.9 °F
Feels Like 70 °F
N
11.0
Wind Variable Wind from ESE
Gusts 12.0 mph

Today
High -- | Low -- °F
--% Chance of Precip.
Yesterday
High -- | Low -- °F
Precip. -- in
Pressure 30.20 in
Visibility 10.0 miles
Clouds Scattered Clouds 3000 ft
Mostly Cloudy 4700 ft
Overcast 8500 ft
Heat Index 70 °F
Dew Point 70 °F
Humidity 91%
Rainfall 0.00 in
Snow Depth Not available.
6:53 AM 7:55 PM
Waning Crescent, 8% visible
SPECI KBVO 291504Z 10011KT 10SM VCTS SCT030 BKN047 OVC085 23/21 A3020 RMK AO2 LTG DSNT NE-S RAE02 TSE1458 P0000 T02280211
Pressure 30.20 in
Visibility 10.0 miles
Clouds Scattered Clouds 3000 ft
Mostly Cloudy 4700 ft
Overcast 8500 ft
Heat Index 70 °F
Dew Point 70 °F
Humidity 91%
Rainfall 0.00 in
Snow Depth Not available.
6:53 AM 7:55 PM
Waning Crescent, 8% visible
SPECI KBVO 291504Z 10011KT 10SM VCTS SCT030 BKN047 OVC085 23/21 A3020 RMK AO2 LTG DSNT NE-S RAE02 TSE1458 P0000 T02280211

10-Day Weather Forecast

Almanac

Astronomy

Aug. 29, 2016 Rise Set
Actual Time
Civil Twilight
Nautical Twilight
Astronomical Twilight
Moon
Length of Visible Light
Length of Day
Tomorrow will be .
, % of the Moon is Illuminated

Today's Extremes

State Highs State Lows

Community

WunderPhotos

Upload Photos

1,935,841 photos uploaded!

WunderBlog® & News

Nearby

Air Quality

  Air Quality AQ Index Pollutant
Not available.

Snow Depth

Station Depth Elevation

Earthquake Activity

City Distance Mag. Time & Date
Minimum magnitude displayed is 2.5.

Coastal Water Temperatures

Place Temperature

Stations

Nearby Weather Stations

Station Location Temp. Windchill Dew Point Humidity Wind Precip. Elev Updated Type
                   

Watches & Warnings

There are currently no watches in effect.